Placerville, California
Current Conditions -  °F | °C
As of 9:15 AM on Saturday 20 Dec 2014 (Local Time) from KPVF Reporting Station
Overcast Overcast  
Wind Chill: 42°   Ceiling: 1100
Heat Index: 46°   Visibility: 4mi
Dew Point: 46°   Wind: 9mph
Humidity: 100%   Direction: 180°S
Pressure: 30.21"   Gusts: NA
Location:  38.73°N, 120.8°W
Report Text: KPVF 201715Z AUTO 18008KT 4SM OVC011 08/08 A3021 RMK AO1
Loading
Personal Weather Stations






























Interactive Weather Map New forecast layout! Learn more

10-Day Weather Forecast

Advertisements
Track Severe Weather on mobile